Terminal Aerodrome Forecast
Issued by NWS

Home | Current Version | Previous Version | Text Only | Print | Product List | Glossary On
Versions: 1 2 3 4 5 6 7 8 9 10 11 12 13 14 15
825
FTUS42 TJSJ 301221 RRA
TAFJSJ
TAF
TJSJ 301221Z 3012/0112 13003KT P6SM -RA FEW022 BKN050 OVC120
      TEMPO 3013/3015 VRB12KT 5SM SHRA FEW018 BKN025
     FM301530 09008KT P6SM VCSH SCT025 BKN060 BKN100
     FM301800 10010KT P6SM VCTS SCT025CB BKN050 OVC100
     FM302200 12005KT P6SM FEW030 SCT080 BKN120=

USA.gov is the U.S. government's official web portal to all federal, state and local government web resources and services.